This is the latest recevied weather packets stored in our database for station/object KD8UYA. If no packets are shown the sender has not sent any weather packets the latest 10 day(s).
| Time | Temp. | Humidity | Pressure | Rain* | Wind** | Luminosity | Snow |
|---|---|---|---|---|---|---|---|
| 1778010357 | 15.56° C | 86% | 1004.5 hPa | 0.25 mm | - | - | - |
| 1778009456 | 16.67° C | 82% | 1004.6 hPa | 0 mm | - | - | - |
| 1778008568 | 17.22° C | 80% | 1004.5 hPa | 0 mm | - | - | - |
| 1778007655 | 17.22° C | 78% | 1004.7 hPa | 0 mm | - | - | - |
| 1778006754 | 17.22° C | 78% | 1004.8 hPa | 0 mm | - | - | - |
| 1778005854 | 17.22° C | 76% | 1004.9 hPa | 0 mm | - | - | - |
| 1778004952 | 17.78° C | 75% | 1004.9 hPa | 0 mm | - | - | - |
| 1778004053 | 17.78° C | 76% | 1004.8 hPa | 0 mm | - | - | - |
| 1778003150 | 17.78° C | 75% | 1004.7 hPa | 0 mm | - | - | - |
| 1778002255 | 17.78° C | 74% | 1004.5 hPa | 0 mm | - | - | - |
| 1778001350 | 17.78° C | 72% | 1004.6 hPa | 0 mm | - | - | - |
| 1778000464 | 17.78° C | 72% | 1004.5 hPa | 0 mm | - | - | - |
| 1777999547 | 18.33° C | 71% | 1004.5 hPa | 0 mm | - | - | - |
| 1777998645 | 18.33° C | 70% | 1004.5 hPa | 0 mm | - | - | - |
| 1777997803 | 18.89° C | 69% | 1004.5 hPa | 0 mm | - | - | - |
| 1777996848 | 19.44° C | 67% | 1004.4 hPa | 0 mm | - | - | - |
| 1777995948 | 19.44° C | 67% | 1003.8 hPa | 0 mm | - | - | - |
| 1777995038 | 18.89° C | 67% | 1003.6 hPa | 0 mm | - | - | - |
| 1777994153 | 18.89° C | 68% | 1003.5 hPa | 0 mm | - | - | - |
| 1777993245 | 18.33° C | 70% | 1003.5 hPa | 0 mm | - | - | - |
| 1777992335 | 17.78° C | 71% | 1003.6 hPa | 0 mm | - | - | - |
| 1777991431 | 17.78° C | 73% | 1003.7 hPa | 0 mm | - | - | - |
| 1777990532 | 17.78° C | 74% | 1003.5 hPa | 0 mm | - | - | - |
| 1777989631 | 17.22° C | 75% | 1003.4 hPa | 0 mm | - | - | - |
| 1777988729 | 17.22° C | 77% | 1003.7 hPa | 0 mm | - | - | - |
* Rain latest hour (hover to see other rain measurements)
** Current wind speed in m/s (hover to see current wind gust speed)